createdAt,value
2023-02-26T00:02:21.722Z,13.3
2023-02-26T00:08:16.434Z,13.3
2023-02-26T00:13:55.206Z,13.3
2023-02-26T00:19:49.167Z,13.3
2023-02-26T00:25:41.857Z,13.3
2023-02-26T00:31:35.814Z,13.3
2023-02-26T00:37:28.797Z,13.3
2023-02-26T00:43:22.032Z,13.3
2023-02-26T00:49:15.314Z,13.2
2023-02-26T00:55:07.475Z,13.2
2023-02-26T01:00:59.834Z,13.2
2023-02-26T01:06:52.603Z,13.1
2023-02-26T01:12:44.799Z,13.1
2023-02-26T01:18:39.476Z,13.1
2023-02-26T01:24:32.249Z,13.1
2023-02-26T01:30:24.701Z,13.1
2023-02-26T01:36:19.298Z,13.1
2023-02-26T01:42:13.087Z,13.1
2023-02-26T01:48:05.833Z,13.1
2023-02-26T01:53:59.413Z,13.1
2023-02-26T01:59:52.631Z,13
2023-02-26T02:05:45.164Z,13
2023-02-26T02:11:38.287Z,13
2023-02-26T02:17:15.474Z,13
2023-02-26T02:22:52.839Z,12.9
2023-02-26T02:28:46.258Z,12.9
2023-02-26T02:34:40.926Z,12.9
2023-02-26T02:40:33.733Z,12.9
2023-02-26T02:46:29.181Z,12.9
2023-02-26T02:52:22.306Z,12.8
2023-02-26T02:58:14.266Z,12.7
2023-02-26T03:04:08.680Z,12.7
2023-02-26T03:10:02.515Z,12.7
2023-02-26T03:15:55.463Z,12.7
2023-02-26T03:21:49.278Z,12.7
2023-02-26T03:27:42.107Z,12.7
2023-02-26T03:33:35.708Z,12.6
2023-02-26T03:39:27.941Z,12.6
2023-02-26T03:45:04.807Z,12.7
2023-02-26T03:50:58.189Z,12.7
2023-02-26T03:56:36.009Z,12.6
2023-02-26T04:02:28.956Z,12.5
2023-02-26T04:08:07.036Z,12.5
2023-02-26T04:13:47.203Z,12.4
2023-02-26T04:19:24.460Z,12.4
2023-02-26T04:25:17.778Z,12.3
2023-02-26T04:31:10.630Z,12.3
2023-02-26T04:37:03.463Z,12.2
2023-02-26T04:42:40.365Z,12.2
2023-02-26T04:48:34.854Z,12.2
2023-02-26T04:54:12.472Z,12.2
2023-02-26T04:59:50.949Z,12.2
2023-02-26T05:05:12.556Z,12.3
2023-02-26T05:11:05.772Z,12.3
2023-02-26T05:16:59.830Z,12.3
2023-02-26T05:22:55.007Z,12.2
2023-02-26T05:28:47.858Z,12.2
2023-02-26T05:34:41.397Z,12.3
2023-02-26T05:40:34.672Z,12.4
2023-02-26T05:46:27.684Z,12.6
2023-02-26T05:52:20.613Z,12.7
2023-02-26T05:57:57.879Z,12.8
2023-02-26T06:03:50.651Z,13
2023-02-26T06:09:42.739Z,13.2
2023-02-26T06:15:34.701Z,13.7
2023-02-26T06:21:28.101Z,14.3
2023-02-26T06:27:20.644Z,15
2023-02-26T06:33:14.694Z,15.9
2023-02-26T06:38:52.392Z,16.8
2023-02-26T06:44:29.721Z,17.6
2023-02-26T06:50:23.168Z,18.4
2023-02-26T06:56:15.250Z,19.3
2023-02-26T07:02:08.268Z,20.1
2023-02-26T07:08:20.469Z,20.8
2023-02-26T07:14:16.028Z,21.6
2023-02-26T07:20:09.210Z,22.4
2023-02-26T07:26:03.013Z,23.1
2023-02-26T07:31:59.086Z,23.7
2023-02-26T07:37:51.835Z,24.3
2023-02-26T07:43:44.024Z,24.9
2023-02-26T07:49:21.522Z,25.3
2023-02-26T07:55:13.705Z,25.6
2023-02-26T08:01:06.423Z,26
2023-02-26T08:06:59.631Z,26.6
2023-02-26T08:12:51.953Z,27.6
2023-02-26T08:18:45.607Z,28.9
2023-02-26T08:24:24.543Z,30
2023-02-26T08:30:00.938Z,31
2023-02-26T08:35:54.897Z,32.3
2023-02-26T08:41:32.771Z,33.6
2023-02-26T08:47:13.587Z,34.8
2023-02-26T08:53:16.638Z,36.1
2023-02-26T08:59:08.712Z,37
2023-02-26T09:05:04.416Z,38.1
2023-02-26T09:10:58.758Z,37.9
2023-02-26T09:16:35.680Z,38.4
2023-02-26T09:22:28.789Z,41.2
2023-02-26T09:28:22.099Z,45.3
2023-02-26T09:33:59.903Z,50.2
2023-02-26T09:39:54.581Z,57.6
2023-02-26T09:45:47.404Z,46.2
2023-02-26T09:51:24.428Z,45.6
2023-02-26T09:57:15.808Z,50.5
2023-02-26T10:03:08.567Z,55.3
2023-02-26T10:09:01.880Z,50.7
2023-02-26T10:14:52.953Z,50.7
2023-02-26T10:20:15.374Z,51.7
2023-02-26T10:26:08.328Z,52.6
2023-02-26T10:32:02.790Z,52.7
2023-02-26T10:37:28.000Z,52.9
2023-02-26T10:43:20.552Z,53.4
2023-02-26T10:48:57.680Z,53
2023-02-26T10:54:20.039Z,48.4
2023-02-26T10:59:57.459Z,46.6
2023-02-26T11:05:41.133Z,44.9
2023-02-26T11:11:17.722Z,43.1
2023-02-26T11:17:13.025Z,41.3
2023-02-26T11:23:05.182Z,39.6
2023-02-26T11:29:00.325Z,37.8
2023-02-26T11:34:56.381Z,36.3
2023-02-26T11:40:52.826Z,34.6
2023-02-26T11:46:29.632Z,33.2
2023-02-26T11:52:07.923Z,31.9
2023-02-26T11:57:28.930Z,30.8
2023-02-26T12:03:08.493Z,29.6
2023-02-26T12:09:01.902Z,28.8
2023-02-26T12:14:54.838Z,28.8
2023-02-26T12:20:34.816Z,29.8
2023-02-26T12:26:28.106Z,30.3
2023-02-26T12:32:06.136Z,29.8
2023-02-26T12:38:16.054Z,29.3
2023-02-26T12:44:09.553Z,29.3
2023-02-26T12:49:46.783Z,30.1
2023-02-26T12:55:39.856Z,31.3
2023-02-26T13:01:33.849Z,32.8
2023-02-26T13:07:36.106Z,32.6
2023-02-26T13:13:29.182Z,31.6
2023-02-26T13:19:21.917Z,30.9
2023-02-26T13:25:13.948Z,29.6
2023-02-26T13:31:06.447Z,29.3
2023-02-26T13:37:04.836Z,29.8
2023-02-26T13:42:57.514Z,31.3
2023-02-26T13:48:03.866Z,32.5
2023-02-26T13:53:25.781Z,32.5
2023-02-26T13:59:02.653Z,33.1
2023-02-26T14:04:41.276Z,33.8
2023-02-26T14:10:18.477Z,33.8
2023-02-26T14:15:57.482Z,33.1
2023-02-26T14:21:50.251Z,31.9
2023-02-26T14:27:43.506Z,30.6
2023-02-26T14:33:37.597Z,28.9
2023-02-26T14:39:33.430Z,27.8
2023-02-26T14:45:27.453Z,26.3
2023-02-26T14:51:20.156Z,25
2023-02-26T14:57:12.989Z,23.8
2023-02-26T15:03:05.072Z,22.6
2023-02-26T15:08:57.606Z,21.7
2023-02-26T15:14:52.663Z,20.9
2023-02-26T15:20:46.566Z,20.1
2023-02-26T15:26:40.117Z,19.5
2023-02-26T15:32:34.393Z,18.9
2023-02-26T15:38:28.149Z,18.3
2023-02-26T15:44:21.588Z,17.8
2023-02-26T15:50:22.252Z,17.3
2023-02-26T15:56:15.663Z,16.9
2023-02-26T16:02:08.612Z,16.6
2023-02-26T16:07:45.822Z,16.3
2023-02-26T16:13:38.849Z,15.9
2023-02-26T16:19:32.321Z,15.7
2023-02-26T16:25:25.942Z,15.4
2023-02-26T16:31:19.496Z,15.3
2023-02-26T16:36:58.875Z,15
2023-02-26T16:42:36.343Z,14.9
2023-02-26T16:48:15.039Z,14.8
2023-02-26T16:53:38.357Z,14.6
2023-02-26T16:59:03.000Z,14.4
2023-02-26T17:04:41.137Z,14.3
2023-02-26T17:10:36.084Z,14.1
2023-02-26T17:16:32.071Z,14
2023-02-26T17:22:27.276Z,14
2023-02-26T17:28:20.001Z,13.9
2023-02-26T17:34:13.675Z,13.9
2023-02-26T17:40:07.021Z,13.9
2023-02-26T17:46:00.501Z,13.8
2023-02-26T17:51:53.872Z,13.8
2023-02-26T17:57:47.723Z,13.7
2023-02-26T18:03:41.541Z,13.6
2023-02-26T18:09:35.783Z,13.4
2023-02-26T18:15:28.767Z,13.3
2023-02-26T18:21:22.656Z,13.3
2023-02-26T18:27:15.362Z,13.2
2023-02-26T18:33:10.262Z,13
2023-02-26T18:39:02.686Z,12.9
2023-02-26T18:44:55.705Z,12.8
2023-02-26T18:50:49.051Z,12.8
2023-02-26T18:56:41.489Z,12.6
2023-02-26T19:02:39.865Z,12.4
2023-02-26T19:08:33.051Z,12.3
2023-02-26T19:14:26.605Z,12.1
2023-02-26T19:20:20.061Z,12
2023-02-26T19:26:16.607Z,12.1
2023-02-26T19:32:13.155Z,11.9
2023-02-26T19:38:08.280Z,11.7
2023-02-26T19:44:02.033Z,11.6
2023-02-26T19:49:55.497Z,11.3
2023-02-26T19:55:47.521Z,11.1
2023-02-26T20:01:41.842Z,11
2023-02-26T20:07:35.149Z,10.9
2023-02-26T20:13:30.043Z,10.6
2023-02-26T20:19:24.313Z,10.5
2023-02-26T20:25:17.498Z,10.5
2023-02-26T20:30:54.381Z,10.4
2023-02-26T20:36:53.497Z,10.3
2023-02-26T20:42:47.541Z,10.2
2023-02-26T20:48:40.901Z,10.2
2023-02-26T20:54:34.847Z,10.2
2023-02-26T21:00:13.093Z,10.4
2023-02-26T21:05:50.991Z,10.4
2023-02-26T21:11:44.309Z,10.4
2023-02-26T21:17:37.276Z,10.5
2023-02-26T21:23:30.878Z,10.6
2023-02-26T21:29:25.300Z,10.6
2023-02-26T21:35:44.271Z,10.6
2023-02-26T21:41:37.999Z,10.5
2023-02-26T21:47:32.241Z,10.4
2023-02-26T21:53:25.932Z,10.3
2023-02-26T21:59:18.428Z,10.2
2023-02-26T22:05:11.600Z,10.1
2023-02-26T22:11:04.435Z,10.1
2023-02-26T22:16:57.185Z,10.3
2023-02-26T22:22:49.926Z,10.3
2023-02-26T22:28:41.892Z,10.4
2023-02-26T22:34:34.850Z,10.4
2023-02-26T22:40:27.477Z,10.6
2023-02-26T22:46:20.778Z,10.6
2023-02-26T22:52:12.762Z,10.4
2023-02-26T22:58:05.457Z,10.3
2023-02-26T23:03:58.784Z,10.1
2023-02-26T23:09:51.344Z,10.2
2023-02-26T23:15:44.542Z,10.2
2023-02-26T23:21:36.727Z,10.1
2023-02-26T23:27:29.050Z,10.1
2023-02-26T23:33:22.154Z,9.9
2023-02-26T23:39:13.998Z,9.7
2023-02-26T23:45:06.857Z,9.5
2023-02-26T23:50:59.099Z,9.4
2023-02-26T23:56:50.857Z,9.3
